Time;durP1;ratioP1;P1;durP2;ratioP2;P2;SDS_P1;SDS_P2;PMS_P1;PMS_P2;Temp;Humidity;BMP_temperature;BMP_pressure;BME280_temperature;BME280_humidity;BME280_pressure;Samples;Min_cycle;Max_cycle;Signal;HPM_P1;HPM_P2
2021/01/13 00:00:43;;;;;;;5.78;1.30;;;;;;;1.17;67.55;99363.94;10175478;29;20058;-64
2021/01/13 00:05:44;;;;;;;7.30;1.73;;;;;;;1.15;68.13;99366.56;10175759;29;20040;-64
2021/01/13 00:10:46;;;;;;;5.15;1.20;;;;;;;1.08;68.38;99366.59;10175303;29;20557;-65
2021/01/13 00:15:47;;;;;;;4.22;1.20;;;;;;;1.19;67.77;99375.16;10175569;29;20077;-65
2021/01/13 00:20:48;;;;;;;6.35;1.40;;;;;;;1.27;67.71;99382.00;10175967;29;20075;-65
2021/01/13 00:25:49;;;;;;;7.03;1.52;;;;;;;1.25;67.86;99377.72;10176216;29;20048;-64
2021/01/13 00:30:50;;;;;;;5.47;1.25;;;;;;;1.31;67.64;99379.41;10175298;29;20078;-65
2021/01/13 00:35:52;;;;;;;4.18;1.10;;;;;;;1.27;67.30;99370.78;10175333;29;20125;-64
2021/01/13 00:40:53;;;;;;;5.80;1.35;;;;;;;1.21;67.68;99389.81;10175500;29;20044;-64
2021/01/13 00:45:54;;;;;;;5.47;1.08;;;;;;;1.31;67.18;99405.31;10175050;29;20044;-65
2021/01/13 00:50:55;;;;;;;5.93;1.10;;;;;;;1.21;67.78;99410.53;10175718;29;20491;-65
2021/01/13 00:55:57;;;;;;;5.55;1.25;;;;;;;1.23;67.45;99416.53;10175965;29;20069;-65
2021/01/13 01:00:59;;;;;;;7.00;1.63;;;;;;;1.21;67.72;99427.78;10175634;29;20047;-64
2021/01/13 01:06:00;;;;;;;1.77;0.80;;;;;;;1.33;67.40;99432.94;10175464;29;20045;-65
2021/01/13 01:11:04;;;;;;;11.23;0.95;;;;;;;1.36;67.33;99422.53;10182021;29;20079;-64
2021/01/13 01:16:05;;;;;;;7.53;1.35;;;;;;;1.37;67.08;99421.66;10182063;29;20044;-69
2021/01/13 01:21:08;;;;;;;8.85;1.80;;;;;;;1.17;67.55;99444.19;10181689;29;20048;-65
2021/01/13 01:26:09;;;;;;;3.17;1.25;;;;;;;1.20;67.49;99441.63;10181781;29;20099;-65
2021/01/13 01:31:10;;;;;;;3.95;1.63;;;;;;;1.08;68.19;99445.09;10181652;29;20115;-64
2021/01/13 01:36:17;;;;;;;7.20;1.30;;;;;;;1.05;68.45;99460.63;10181791;29;20076;-65
2021/01/13 01:41:18;;;;;;;8.20;1.37;;;;;;;1.12;68.43;99464.91;10180801;29;20055;-65
2021/01/13 01:46:24;;;;;;;6.25;1.20;;;;;;;1.21;68.09;99471.81;10180837;29;20044;-64
2021/01/13 01:51:32;;;;;;;8.55;1.42;;;;;;;1.19;68.25;99469.19;10180700;29;20554;-64
2021/01/13 01:56:37;;;;;;;9.60;2.08;;;;;;;1.27;67.85;99480.41;10180872;29;20451;-64
2021/01/13 02:01:50;;;;;;;6.28;1.75;;;;;;;1.30;67.87;99470.91;10180020;29;20570;-65
2021/01/13 02:06:58;;;;;;;8.48;1.23;;;;;;;1.18;68.53;99476.97;10180097;29;20067;-66
2021/01/13 02:12:09;;;;;;;5.15;1.40;;;;;;;1.25;68.18;99466.59;10180107;29;20410;-65
2021/01/13 02:17:10;;;;;;;11.63;2.25;;;;;;;1.24;68.02;99457.13;10180273;29;20036;-64
2021/01/13 02:22:14;;;;;;;8.00;1.40;;;;;;;1.22;68.29;99458.84;10178289;29;20054;-64
2021/01/13 02:27:34;;;;;;;7.55;1.67;;;;;;;1.11;68.72;99470.13;10179442;29;20047;-65
2021/01/13 02:32:42;;;;;;;5.70;1.58;;;;;;;1.09;68.35;99466.66;10179512;29;20417;-65
2021/01/13 02:38:06;;;;;;;15.80;1.63;;;;;;;1.17;68.23;99472.69;10179337;29;20156;-66
2021/01/13 02:43:09;;;;;;;12.10;1.42;;;;;;;1.14;68.54;99470.09;10178828;29;20099;-65
2021/01/13 02:48:14;;;;;;;8.27;1.48;;;;;;;1.23;67.80;99475.22;10193173;23;20100;-67
2021/01/13 02:53:15;;;;;;;7.57;1.45;;;;;;;1.24;67.89;99487.34;10180968;29;20054;-68
2021/01/13 02:58:29;;;;;;;5.32;1.55;;;;;;;1.23;67.80;99496.81;10180853;29;20056;-67
2021/01/13 03:03:32;;;;;;;8.07;1.30;;;;;;;1.23;67.74;99496.81;10179275;29;20056;-68
2021/01/13 03:09:00;;;;;;;6.28;1.20;;;;;;;1.26;67.41;99496.81;10178794;29;20482;-68
2021/01/13 03:14:19;;;;;;;6.05;1.33;;;;;;;1.27;67.39;99502.84;10179560;29;20050;-67
2021/01/13 03:19:35;;;;;;;5.57;1.15;;;;;;;1.30;67.36;99497.66;10179966;29;20044;-68
2021/01/13 03:24:49;;;;;;;9.40;1.30;;;;;;;1.25;67.39;99499.41;10179592;29;20469;-68
2021/01/13 03:29:53;;;;;;;9.27;1.30;;;;;;;1.41;66.67;99498.47;10179458;29;20082;-68
2021/01/13 03:35:02;;;;;;;10.57;1.35;;;;;;;1.19;67.30;99502.84;10179307;29;20048;-68
2021/01/13 03:40:05;;;;;;;5.68;1.05;;;;;;;1.25;66.80;99507.19;10177040;29;20047;-67
2021/01/13 03:45:07;;;;;;;11.63;1.50;;;;;;;1.26;66.92;99506.31;10176477;29;20063;-68
2021/01/13 03:50:16;;;;;;;4.10;1.23;;;;;;;1.10;67.21;99499.44;10177989;29;20414;-68
2021/01/13 03:55:21;;;;;;;5.53;1.42;;;;;;;1.25;66.49;99502.00;10177450;29;20051;-69
2021/01/13 04:00:41;;;;;;;10.48;1.75;;;;;;;1.32;66.48;99506.28;10175342;29;20107;-67
2021/01/13 04:06:02;;;;;;;8.95;1.63;;;;;;;1.26;66.96;99516.66;10176534;29;20095;-70
2021/01/13 04:11:10;;;;;;;10.85;1.58;;;;;;;1.27;66.64;99515.78;10177228;29;20460;-68
2021/01/13 04:16:15;;;;;;;2.58;1.27;;;;;;;1.25;66.76;99520.13;10176811;29;20044;-67
2021/01/13 04:21:19;;;;;;;6.68;1.77;;;;;;;1.30;66.75;99523.56;10175755;29;20066;-67
2021/01/13 04:26:21;;;;;;;8.15;1.50;;;;;;;1.20;66.79;99506.34;10176412;29;20059;-67
2021/01/13 04:31:23;;;;;;;6.32;1.73;;;;;;;1.26;66.56;99512.34;10175283;29;20123;-67
2021/01/13 04:36:25;;;;;;;9.18;1.75;;;;;;;1.25;66.10;99508.03;10175080;29;20044;-67
2021/01/13 04:41:55;;;;;;;4.22;1.08;;;;;;;1.19;66.23;99517.53;10175870;29;20145;-67
2021/01/13 04:47:09;;;;;;;6.00;1.30;;;;;;;1.16;66.54;99522.72;10182461;29;20508;-68
2021/01/13 04:52:18;;;;;;;8.23;2.00;;;;;;;1.11;66.69;99527.91;10182547;29;20085;-67
2021/01/13 04:57:48;;;;;;;12.20;1.45;;;;;;;1.16;66.58;99520.16;10182570;29;20054;-68
2021/01/13 05:03:11;;;;;;;3.53;1.02;;;;;;;1.17;66.48;99511.50;10182582;29;20079;-67
2021/01/13 05:08:25;;;;;;;10.43;1.60;;;;;;;1.10;66.64;99517.53;10182888;29;20413;-67
2021/01/13 05:13:33;;;;;;;12.77;1.95;;;;;;;1.06;66.77;99518.41;10182425;29;20131;-67
2021/01/13 05:18:49;;;;;;;7.82;1.73;;;;;;;1.03;66.76;99519.31;10181545;29;20060;-67
2021/01/13 05:23:53;;;;;;;8.70;1.98;;;;;;;1.04;67.31;99502.03;10181370;29;20087;-67
2021/01/13 05:29:03;;;;;;;10.25;2.90;;;;;;;1.02;67.40;99512.41;10181314;29;20506;-67
2021/01/13 05:34:05;;;;;;;4.22;1.40;;;;;;;1.10;67.34;99502.00;10181940;29;20131;-66
2021/01/13 05:39:11;;;;;;;5.43;1.60;;;;;;;1.12;67.37;99513.25;10180871;29;20103;-68
2021/01/13 05:44:12;;;;;;;9.50;1.65;;;;;;;1.11;67.61;99506.34;10181584;29;20048;-67
2021/01/13 05:49:15;;;;;;;6.25;1.65;;;;;;;0.97;67.64;99525.34;10181498;29;20107;-68
2021/01/13 05:54:17;;;;;;;7.25;1.52;;;;;;;1.09;67.37;99523.59;10181420;29;20135;-68
2021/01/13 05:59:27;;;;;;;9.80;2.38;;;;;;;1.06;67.68;99533.94;10181304;29;20589;-68
2021/01/13 06:04:28;;;;;;;5.47;1.60;;;;;;;1.24;67.08;99545.16;10180892;29;20127;-67
2021/01/13 06:09:36;;;;;;;10.40;1.98;;;;;;;1.16;67.59;99539.13;10179090;29;20108;-68
2021/01/13 06:14:38;;;;;;;4.90;1.88;;;;;;;1.25;67.27;99544.28;10180989;29;20055;-68
2021/01/13 06:19:42;;;;;;;7.47;2.42;;;;;;;1.32;67.03;99547.69;10179168;29;20065;-68
2021/01/13 06:24:46;;;;;;;7.63;2.17;;;;;;;1.20;67.01;99542.56;10179382;29;20048;-68
2021/01/13 06:29:52;;;;;;;8.95;2.15;;;;;;;1.30;67.00;99543.41;10180467;29;20457;-68
2021/01/13 06:34:56;;;;;;;9.98;1.58;;;;;;;1.45;66.63;99533.00;10180680;29;20052;-68
2021/01/13 06:39:58;;;;;;;5.90;1.52;;;;;;;1.42;66.68;99535.63;10180281;29;20048;-67
2021/01/13 06:44:59;;;;;;;5.28;1.30;;;;;;;1.20;67.42;99553.78;10179450;29;20052;-68
2021/01/13 06:50:00;;;;;;;14.70;2.17;;;;;;;1.35;66.62;99550.28;10179052;29;20131;-66
2021/01/13 06:55:02;;;;;;;8.40;2.20;;;;;;;1.35;66.97;99550.28;10178841;29;20082;-68
2021/01/13 07:00:04;;;;;;;7.00;2.40;;;;;;;1.41;66.41;99541.66;10177052;29;20451;-67
2021/01/13 07:05:05;;;;;;;3.72;1.52;;;;;;;1.34;66.33;99535.63;10178557;29;20044;-68
2021/01/13 07:10:11;;;;;;;8.10;1.48;;;;;;;1.21;67.17;99549.47;10178498;29;20056;-67
2021/01/13 07:15:13;;;;;;;9.60;1.95;;;;;;;1.26;66.91;99548.59;10178638;29;20071;-67
2021/01/13 07:20:14;;;;;;;5.20;2.10;;;;;;;1.26;66.96;99551.19;10176226;29;20071;-67
2021/01/13 07:25:30;;;;;;;7.70;1.85;;;;;;;1.35;66.40;99552.88;10177758;29;20119;-68
2021/01/13 07:30:32;;;;;;;7.20;1.88;;;;;;;1.46;65.86;99558.91;10177840;29;20178;-67
2021/01/13 07:35:42;;;;;;;6.13;1.60;;;;;;;1.29;66.12;99558.09;10177664;29;20052;-68
2021/01/13 07:40:58;;;;;;;7.07;1.70;;;;;;;1.32;66.42;99554.63;10177538;29;20051;-68
2021/01/13 07:46:03;;;;;;;12.10;2.30;;;;;;;1.41;66.20;99559.78;10177484;29;20044;-68
2021/01/13 07:51:10;;;;;;;8.32;1.80;;;;;;;1.33;66.55;99554.63;10175481;29;20052;-68
2021/01/13 07:56:14;;;;;;;6.93;2.90;;;;;;;1.39;66.70;99556.34;10177180;29;20069;-68
2021/01/13 08:02:06;;;;;;;5.40;2.13;;;;;;;1.49;66.64;99561.47;10176382;29;20426;-67
2021/01/13 08:07:15;;;;;;;5.00;1.50;;;;;;;1.43;66.79;99563.25;10176747;29;20041;-67
2021/01/13 08:12:56;;;;;;;6.95;2.03;;;;;;;1.50;66.63;99570.09;10176289;29;20072;-67
2021/01/13 08:18:49;;;;;;;8.93;2.15;;;;;;;1.70;65.70;99562.28;10176039;29;20060;-67
2021/01/13 08:29:16;;;;;;;7.55;1.60;;;;;;;1.62;66.24;99558.84;10176804;29;20153;-67
2021/01/13 08:34:18;;;;;;;5.82;1.20;;;;;;;1.74;66.58;99559.69;10176229;29;20104;-68
2021/01/13 08:39:27;;;;;;;7.53;1.75;;;;;;;1.74;66.30;99557.09;10175953;29;20048;-68
2021/01/13 08:44:38;;;;;;;10.20;1.60;;;;;;;1.81;66.01;99554.47;10176804;29;20052;-69
2021/01/13 08:49:40;;;;;;;7.88;1.63;;;;;;;1.80;66.31;99571.75;10176677;29;20048;-65
2021/01/13 08:55:02;;;;;;;5.97;1.92;;;;;;;1.83;66.75;99542.38;10176355;29;20509;-65
2021/01/13 09:00:09;;;;;;;8.02;2.15;;;;;;;1.89;66.77;99543.19;10176237;29;20059;-65
2021/01/13 09:05:27;;;;;;;15.70;1.97;;;;;;;1.91;66.63;99543.22;10175619;29;20131;-66
2021/01/13 09:10:51;;;;;;;5.70;1.67;;;;;;;1.80;67.03;99545.81;10175024;29;20048;-67
2021/01/13 09:15:53;;;;;;;6.03;1.75;;;;;;;1.87;66.63;99544.94;10176003;29;20410;-65
2021/01/13 09:20:56;;;;;;;8.55;1.40;;;;;;;1.98;66.38;99560.44;10174793;29;20048;-67
2021/01/13 09:25:59;;;;;;;8.18;1.65;;;;;;;1.96;66.34;99547.50;10174475;29;20487;-67
2021/01/13 09:31:11;;;;;;;6.00;1.58;;;;;;;1.98;66.43;99560.44;10180376;29;20051;-66
2021/01/13 09:36:12;;;;;;;8.15;2.08;;;;;;;1.88;67.46;99562.22;10182019;29;20410;-65
2021/01/13 09:41:25;;;;;;;6.57;1.40;;;;;;;1.75;68.71;99558.81;10182006;29;20040;-67
2021/01/13 09:46:30;;;;;;;7.70;1.60;;;;;;;1.71;68.76;99553.63;10180472;29;20072;-65
2021/01/13 09:51:34;;;;;;;5.45;1.42;;;;;;;1.72;68.40;99551.03;10180534;29;20048;-65
2021/01/13 09:56:37;;;;;;;8.77;1.52;;;;;;;1.65;68.57;99546.75;10181716;29;20075;-67
2021/01/13 10:01:38;;;;;;;4.80;1.50;;;;;;;1.60;68.77;99532.97;10180930;29;20056;-66
2021/01/13 10:06:41;;;;;;;6.88;2.15;;;;;;;1.74;67.93;99530.31;10180785;29;20459;-66
2021/01/13 10:11:54;;;;;;;14.32;2.28;;;;;;;1.66;67.98;99543.28;10179810;29;20092;-67
2021/01/13 10:16:58;;;;;;;6.55;1.60;;;;;;;1.70;68.03;99538.97;10181419;29;20072;-66
2021/01/13 10:22:02;;;;;;;8.70;2.08;;;;;;;1.73;67.39;99532.06;10179808;29;20052;-65
2021/01/13 10:27:03;;;;;;;7.07;2.00;;;;;;;1.66;67.49;99530.34;10178147;29;20072;-67
2021/01/13 10:32:05;;;;;;;6.82;1.80;;;;;;;1.65;67.80;99525.19;10178430;29;20056;-66
2021/01/13 10:37:07;;;;;;;6.22;1.92;;;;;;;1.69;68.11;99514.78;10179679;29;20200;-66
2021/01/13 10:42:08;;;;;;;5.72;1.90;;;;;;;1.62;68.17;99518.25;10178067;29;20056;-65
2021/01/13 10:47:11;;;;;;;5.15;1.63;;;;;;;1.75;67.73;99519.94;10179003;29;20095;-66
2021/01/13 10:52:16;;;;;;;7.00;2.17;;;;;;;1.79;67.35;99515.59;10178232;29;20086;-67
2021/01/13 10:57:29;;;;;;;9.23;1.88;;;;;;;1.82;66.94;99512.16;10178459;29;20507;-67
2021/01/13 11:02:30;;;;;;;6.30;2.00;;;;;;;1.94;67.10;99496.53;10178307;29;20136;-66
2021/01/13 11:07:40;;;;;;;6.70;1.73;;;;;;;2.06;65.73;99486.09;10176642;29;20048;-67
2021/01/13 11:12:41;;;;;;;7.32;1.90;;;;;;;2.03;65.96;99491.28;10178432;29;20100;-65
2021/01/13 11:17:43;;;;;;;6.45;2.05;;;;;;;2.10;65.99;99486.94;10178363;29;20040;-65
2021/01/13 11:22:45;;;;;;;4.20;1.40;;;;;;;2.01;65.48;99488.69;10176761;29;20071;-66
2021/01/13 11:27:58;;;;;;;8.23;1.95;;;;;;;1.99;66.52;99482.69;10177585;29;20514;-67
2021/01/13 11:33:01;;;;;;;9.98;2.20;;;;;;;1.81;68.86;99479.31;10177725;29;20477;-66
2021/01/13 11:38:11;;;;;;;7.63;1.98;;;;;;;1.68;69.32;99482.00;10176989;29;20076;-66
2021/01/13 11:43:52;;;;;;;7.47;2.10;;;;;;;1.54;70.23;99465.63;10177864;29;20059;-67
2021/01/13 11:49:15;;;;;;;6.43;2.50;;;;;;;1.59;70.77;99463.88;10177785;29;20131;-65
2021/01/13 11:54:30;;;;;;;6.40;2.00;;;;;;;1.57;70.47;99454.41;10177235;29;20044;-67
2021/01/13 11:59:31;;;;;;;6.32;2.22;;;;;;;1.47;70.57;99451.84;10176418;29;20106;-65
2021/01/13 12:04:43;;;;;;;7.30;2.38;;;;;;;1.40;70.16;99452.72;10174752;29;20066;-65
2021/01/13 12:09:44;;;;;;;9.95;2.45;;;;;;;1.47;69.71;99457.03;10176085;29;20119;-64
2021/01/13 12:14:45;;;;;;;5.45;2.28;;;;;;;1.61;69.52;99443.16;10177878;29;20084;-66
2021/01/13 12:19:47;;;;;;;5.32;2.97;;;;;;;1.64;69.45;99430.16;10180533;29;20079;-66
2021/01/13 12:24:48;;;;;;;5.40;2.67;;;;;;;1.61;69.38;99428.47;10184063;29;20066;-66
2021/01/13 12:30:13;;;;;;;6.93;2.95;;;;;;;1.64;68.97;99418.09;10179703;29;20047;-65
2021/01/13 12:35:14;;;;;;;5.53;2.15;;;;;;;1.75;68.28;99418.03;10180096;29;20391;-66
2021/01/13 12:40:36;;;;;;;5.03;2.28;;;;;;;1.82;67.63;99422.31;10181095;29;20052;-66
2021/01/13 12:45:38;;;;;;;4.70;2.65;;;;;;;1.91;67.17;99411.03;10179134;29;20052;-66
2021/01/13 12:50:40;;;;;;;6.47;2.72;;;;;;;1.90;67.10;99409.28;10178849;29;20372;-66
2021/01/13 12:55:42;;;;;;;7.95;3.28;;;;;;;1.91;67.47;99401.53;10180486;29;20036;-66
2021/01/13 13:00:44;;;;;;;5.95;2.40;;;;;;;2.08;66.77;99404.00;10178619;29;20048;-66
2021/01/13 13:05:48;;;;;;;6.18;2.65;;;;;;;1.95;67.31;99407.53;10184737;29;20093;-66
2021/01/13 13:10:50;;;;;;;4.45;2.88;;;;;;;1.59;70.28;99406.03;10183616;29;20107;-66
2021/01/13 13:15:51;;;;;;;6.78;3.53;;;;;;;1.73;70.26;99388.69;10183024;29;20518;-64
2021/01/13 13:20:52;;;;;;;8.40;2.72;;;;;;;1.75;70.58;99381.75;10183706;29;20058;-65
2021/01/13 13:25:53;;;;;;;12.65;3.63;;;;;;;1.82;69.77;99377.41;10181856;29;20132;-65
2021/01/13 13:30:55;;;;;;;8.25;2.88;;;;;;;1.93;68.75;99375.56;10184893;29;20122;-66
2021/01/13 13:35:57;;;;;;;10.07;2.70;;;;;;;2.01;67.74;99373.78;10186796;29;20060;-66
2021/01/13 13:40:59;;;;;;;7.65;2.88;;;;;;;2.03;67.85;99372.03;10186374;29;20126;-65
2021/01/13 13:46:02;;;;;;;4.10;2.45;;;;;;;1.95;67.86;99363.47;10187456;29;20059;-66
2021/01/13 13:51:04;;;;;;;7.03;3.78;;;;;;;1.93;68.79;99354.84;10186695;29;20066;-66
2021/01/13 13:56:06;;;;;;;6.90;3.95;;;;;;;1.76;69.60;99368.78;10187203;29;20036;-65
2021/01/13 14:01:08;;;;;;;6.07;3.58;;;;;;;1.92;68.71;99366.94;10189712;29;20502;-65
2021/01/13 14:06:10;;;;;;;6.75;2.88;;;;;;;1.97;68.91;99361.72;10189530;29;20052;-66
2021/01/13 14:11:11;;;;;;;6.53;3.05;;;;;;;1.88;69.76;99364.38;10187315;29;20396;-65
2021/01/13 14:16:18;;;;;;;14.07;4.15;;;;;;;1.81;70.41;99350.59;10187579;29;20336;-65
2021/01/13 14:21:20;;;;;;;5.38;3.22;;;;;;;1.79;70.01;99342.00;10187577;29;20044;-65
2021/01/13 14:26:26;;;;;;;7.05;3.90;;;;;;;1.79;69.91;99347.19;10186812;29;20044;-66
2021/01/13 14:31:34;;;;;;;6.65;4.32;;;;;;;2.00;68.96;99339.25;10186392;29;20059;-66
2021/01/13 14:36:36;;;;;;;5.88;3.83;;;;;;;2.10;68.02;99345.19;10184893;29;20044;-65
2021/01/13 14:41:37;;;;;;;10.10;4.20;;;;;;;1.96;68.63;99340.13;10184248;29;20051;-66
2021/01/13 14:46:40;;;;;;;7.90;3.63;;;;;;;1.77;69.62;99331.66;10184808;29;20074;-66
2021/01/13 14:51:41;;;;;;;6.60;3.00;;;;;;;1.84;69.24;99327.25;10222138;23;20048;-82
2021/01/13 14:56:42;;;;;;;9.70;4.20;;;;;;;1.80;68.80;99320.38;10206322;29;20127;-82
2021/01/13 15:01:44;;;;;;;8.15;3.67;;;;;;;1.81;68.56;99309.13;10204824;29;20044;-79
2021/01/13 15:06:46;;;;;;;7.43;3.42;;;;;;;1.94;67.64;99313.34;10206572;29;20516;-80
2021/01/13 15:11:47;;;;;;;5.53;3.42;;;;;;;1.80;68.41;99307.44;10205342;29;20051;-81
2021/01/13 15:16:49;;;;;;;3.30;2.72;;;;;;;1.83;68.05;99310.00;10204344;29;20044;-80
2021/01/13 15:21:50;;;;;;;3.80;3.42;;;;;;;1.84;67.59;99305.69;10215199;29;20075;-79
2021/01/13 15:26:51;;;;;;;6.00;2.92;;;;;;;1.96;67.27;99297.81;10209274;29;20044;-79
2021/01/13 15:31:53;;;;;;;4.00;2.83;;;;;;;1.90;67.56;99285.72;10209714;29;20075;-79
2021/01/13 15:36:55;;;;;;;4.95;3.13;;;;;;;1.80;67.63;99284.09;10205427;29;20040;-79
2021/01/13 15:42:02;;;;;;;4.25;2.75;;;;;;;1.91;67.04;99284.03;10201621;29;20051;-79
2021/01/13 15:47:06;;;;;;;4.78;2.55;;;;;;;1.81;67.09;99259.06;10202202;29;20486;-79
2021/01/13 15:52:16;;;;;;;4.05;2.45;;;;;;;1.83;67.37;99260.78;10199813;29;20044;-80
2021/01/13 15:57:21;;;;;;;3.85;2.45;;;;;;;1.77;67.61;99240.97;10202100;29;20074;-79
2021/01/13 16:02:22;;;;;;;4.18;2.10;;;;;;;1.72;67.47;99234.06;10198636;29;20048;-80
2021/01/13 16:07:26;;;;;;;4.15;2.78;;;;;;;1.76;66.56;99230.59;10199136;29;20036;-80
2021/01/13 16:12:33;;;;;;;2.80;2.10;;;;;;;1.82;66.01;99221.91;10201021;29;20044;-79
2021/01/13 16:17:44;;;;;;;4.07;2.67;;;;;;;1.82;65.96;99202.03;10192236;29;20073;-78
2021/01/13 16:22:46;;;;;;;4.13;3.10;;;;;;;1.80;65.81;99197.75;10199655;29;20040;-79
2021/01/13 16:27:48;;;;;;;4.25;2.53;;;;;;;1.71;66.09;99189.19;10208694;29;20044;-80
2021/01/13 16:32:50;;;;;;;6.10;2.58;;;;;;;1.79;65.54;99176.16;10207953;29;20048;-78
2021/01/13 16:37:51;;;;;;;3.67;2.30;;;;;;;1.80;65.07;99159.72;10207522;29;20050;-79
2021/01/13 16:42:52;;;;;;;3.17;2.40;;;;;;;1.81;64.21;99147.63;10210705;29;20055;-78
2021/01/13 16:47:54;;;;;;;6.03;2.70;;;;;;;1.71;64.42;99141.69;10206006;29;20040;-79
2021/01/13 16:52:58;;;;;;;3.83;2.30;;;;;;;1.77;63.58;99126.97;10216664;29;20082;-79
2021/01/13 16:58:01;;;;;;;3.75;2.13;;;;;;;1.75;62.78;99120.06;10207777;29;20052;-79
2021/01/13 17:03:03;;;;;;;4.88;2.45;;;;;;;1.81;62.39;99127.75;10204401;29;20044;-78
2021/01/13 17:08:05;;;;;;;3.75;2.05;;;;;;;1.77;62.80;99121.78;10195671;29;20055;-78
2021/01/13 17:13:10;;;;;;;4.32;1.92;;;;;;;1.85;61.97;99103.53;10201243;29;20080;-80
2021/01/13 17:18:17;;;;;;;3.63;2.08;;;;;;;1.75;61.98;99088.97;10207551;29;20044;-79
2021/01/13 17:23:18;;;;;;;3.88;2.00;;;;;;;1.80;61.49;99102.72;10205975;29;20052;-78
2021/01/13 17:28:20;;;;;;;2.72;1.75;;;;;;;1.78;61.05;99076.00;10202337;29;20036;-79
2021/01/13 17:33:22;;;;;;;2.30;1.88;;;;;;;1.72;61.38;99078.63;10199454;29;20051;-79
2021/01/13 17:38:24;;;;;;;2.33;1.88;;;;;;;1.65;62.07;99069.22;10195974;29;20044;-79
2021/01/13 17:43:25;;;;;;;4.40;1.58;;;;;;;1.74;60.48;99059.63;10198854;29;20144;-78
2021/01/13 17:48:26;;;;;;;4.93;2.30;;;;;;;1.75;60.97;99061.31;10205618;29;20040;-78
2021/01/13 17:53:28;;;;;;;3.75;1.73;;;;;;;1.75;60.07;99053.53;10194359;29;20415;-79
2021/01/13 17:58:31;;;;;;;3.20;1.70;;;;;;;1.82;59.83;99025.84;10189264;29;20384;-78
2021/01/13 18:03:42;;;;;;;4.30;1.80;;;;;;;1.76;59.21;99020.72;10197021;29;20052;-79
2021/01/13 18:08:44;;;;;;;3.97;1.55;;;;;;;1.79;59.19;99009.47;10213875;29;20044;-78
2021/01/13 18:13:45;;;;;;;5.28;1.80;;;;;;;1.80;58.85;99000.81;10214481;29;20052;-78
2021/01/13 18:18:49;;;;;;;3.70;1.50;;;;;;;1.86;59.07;98995.53;10217668;29;20048;-79
2021/01/13 18:23:50;;;;;;;3.83;1.60;;;;;;;1.82;59.46;98963.66;10200946;29;20126;-79
2021/01/13 18:28:52;;;;;;;5.28;1.58;;;;;;;1.92;58.71;98960.06;10205814;29;20329;-80
2021/01/13 18:33:53;;;;;;;3.65;1.40;;;;;;;1.90;59.08;98947.97;10208105;29;20052;-80
2021/01/13 18:38:54;;;;;;;4.70;1.60;;;;;;;1.94;59.07;98947.06;10205194;29;20071;-80
2021/01/13 18:43:58;;;;;;;2.67;1.33;;;;;;;1.99;59.85;98947.84;10207986;29;20048;-79
2021/01/13 18:48:59;;;;;;;5.18;1.80;;;;;;;1.72;61.65;98936.13;10206852;29;20076;-80
2021/01/13 18:54:01;;;;;;;3.70;1.40;;;;;;;1.64;61.70;98925.91;10205178;29;20056;-80
2021/01/13 18:59:04;;;;;;;2.65;1.40;;;;;;;1.67;62.33;98915.47;10200620;29;20044;-79
2021/01/13 19:04:05;;;;;;;4.10;1.70;;;;;;;1.37;65.35;98908.97;10200460;29;20051;-80
2021/01/13 19:09:06;;;;;;;2.90;2.00;;;;;;;1.27;65.98;98892.69;10205267;29;20108;-80
2021/01/13 19:14:10;;;;;;;4.07;2.25;;;;;;;1.18;67.02;98894.56;10204723;29;20063;-79
2021/01/13 19:19:14;;;;;;;3.45;2.63;;;;;;;0.91;69.10;98883.66;10204173;29;20036;-79
2021/01/13 19:24:15;;;;;;;3.15;2.35;;;;;;;0.84;69.51;98870.78;10203101;29;20048;-79
2021/01/13 19:29:16;;;;;;;6.18;3.35;;;;;;;0.76;70.41;98873.47;10204552;29;20048;-79
2021/01/13 19:34:17;;;;;;;3.78;3.17;;;;;;;0.69;70.63;98874.41;10201703;29;20096;-79
2021/01/13 19:39:20;;;;;;;4.57;2.83;;;;;;;0.78;69.92;98857.94;10208583;29;20051;-79
2021/01/13 19:44:21;;;;;;;3.90;2.72;;;;;;;0.86;69.80;98840.59;10206564;29;20052;-79
2021/01/13 19:49:23;;;;;;;4.60;2.80;;;;;;;0.78;70.07;98830.34;10199776;29;20460;-79
2021/01/13 19:54:24;;;;;;;6.03;2.92;;;;;;;0.88;69.81;98829.34;10197866;29;20415;-79
2021/01/13 19:59:25;;;;;;;3.75;3.05;;;;;;;0.89;69.86;98823.31;10197286;29;20111;-79
2021/01/13 20:04:27;;;;;;;2.95;2.58;;;;;;;0.98;69.47;98830.97;10199493;29;20068;-79
2021/01/13 20:09:28;;;;;;;3.80;3.00;;;;;;;0.96;69.57;98835.28;10200394;29;20060;-79
2021/01/13 20:14:29;;;;;;;4.88;3.10;;;;;;;1.05;69.63;98861.94;10203834;29;20451;-80
2021/01/13 20:19:30;;;;;;;4.75;3.63;;;;;;;0.97;70.88;98924.13;10199420;29;20048;-79
2021/01/13 20:24:32;;;;;;;10.95;2.95;;;;;;;0.47;73.82;98983.22;10203782;29;20052;-78
2021/01/13 20:29:33;;;;;;;1.52;0.80;;;;;;;-0.19;76.90;98977.63;10207832;29;20075;-79
2021/01/13 20:34:34;;;;;;;2.83;0.70;;;;;;;-0.41;77.70;98965.69;10210865;29;20052;-79
2021/01/13 20:39:36;;;;;;;2.97;1.15;;;;;;;-0.40;77.71;98946.75;10192037;29;20052;-79
2021/01/13 20:44:37;;;;;;;1.27;0.50;;;;;;;-0.40;76.89;98942.47;10210276;29;20055;-78
2021/01/13 20:49:38;;;;;;;2.55;1.00;;;;;;;-0.43;76.24;98936.47;10215415;23;20052;-66
2021/01/13 20:54:40;;;;;;;1.48;0.73;;;;;;;-0.45;76.25;98951.09;10178715;29;20080;-67
2021/01/13 20:59:44;;;;;;;0.98;0.50;;;;;;;-0.50;76.69;98940.78;10178848;29;20111;-66
2021/01/13 21:04:49;;;;;;;0.82;0.55;;;;;;;-0.53;75.90;98926.19;10189586;29;20052;-65
2021/01/13 21:09:52;;;;;;;0.98;0.30;;;;;;;-0.54;75.47;98923.59;10189161;29;20490;-65
2021/01/13 21:14:53;;;;;;;1.95;0.43;;;;;;;-0.48;75.22;98917.56;10177976;29;20052;-66
2021/01/13 21:19:54;;;;;;;1.23;0.47;;;;;;;-0.45;74.36;98941.63;10178564;29;20455;-67
2021/01/13 21:24:55;;;;;;;1.42;0.65;;;;;;;-0.32;73.32;98924.34;10182992;29;20517;-65
2021/01/13 21:29:57;;;;;;;1.20;0.40;;;;;;;-0.26;72.67;98935.50;10183068;29;20056;-66
2021/01/13 21:34:58;;;;;;;2.20;0.50;;;;;;;-0.27;72.29;98938.97;10185478;29;20052;-67
2021/01/13 21:39:59;;;;;;;4.78;0.60;;;;;;;-0.28;72.07;98933.78;10185177;29;20079;-66
2021/01/13 21:45:01;;;;;;;0.95;0.50;;;;;;;-0.30;71.71;98946.72;10186501;29;20092;-64
2021/01/13 21:50:04;;;;;;;3.63;0.60;;;;;;;-0.34;71.37;98947.59;10184761;29;20114;-66
2021/01/13 21:55:07;;;;;;;7.40;0.93;;;;;;;-0.34;71.99;98942.44;10177538;29;20053;-67
2021/01/13 22:00:09;;;;;;;1.27;0.60;;;;;;;-0.40;71.61;98945.06;10143998;29;20415;-66
2021/01/13 22:05:13;;;;;;;2.25;0.82;;;;;;;-0.35;71.57;98940.72;10145502;29;20056;-65
2021/01/13 22:10:16;;;;;;;2.22;0.52;;;;;;;-0.28;70.44;98933.78;10145993;29;20057;-66
2021/01/13 22:15:17;;;;;;;6.25;1.08;;;;;;;-0.38;70.65;98940.72;10145027;29;20036;-67
2021/01/13 22:20:18;;;;;;;5.40;1.17;;;;;;;-0.34;70.59;98939.00;10144472;29;20061;-66
2021/01/13 22:25:20;;;;;;;4.10;1.02;;;;;;;-0.26;70.87;98947.56;10143160;29;20048;-66
2021/01/13 22:30:21;;;;;;;2.55;0.70;;;;;;;-0.15;70.54;98947.47;10143281;29;20052;-66
2021/01/13 22:35:24;;;;;;;2.53;0.90;;;;;;;-0.14;70.87;98946.59;10142302;29;20080;-65
2021/01/13 22:40:25;;;;;;;4.10;1.00;;;;;;;-0.27;71.57;98957.03;10142518;29;20048;-65
2021/01/13 22:45:27;;;;;;;2.78;1.27;;;;;;;-0.18;71.43;98953.50;10142412;29;20108;-65
2021/01/13 22:50:28;;;;;;;2.67;0.70;;;;;;;-0.16;71.67;98963.84;10141762;29;20395;-65
2021/01/13 22:55:29;;;;;;;2.53;0.77;;;;;;;-0.13;71.57;98962.13;10141917;29;20055;-65
2021/01/13 23:00:30;;;;;;;2.97;1.10;;;;;;;-0.20;72.10;98965.59;10143622;29;20072;-66
2021/01/13 23:05:32;;;;;;;3.00;1.35;;;;;;;-0.22;72.53;98977.66;10142110;29;20542;-65
2021/01/13 23:10:34;;;;;;;3.60;1.10;;;;;;;-0.05;70.33;98972.38;10141430;29;20055;-66
2021/01/13 23:15:35;;;;;;;4.30;1.20;;;;;;;-0.12;69.41;98978.47;10141672;29;20048;-64
2021/01/13 23:20:37;;;;;;;2.55;1.00;;;;;;;-0.20;68.81;98977.66;10144032;29;20057;-65
2021/01/13 23:25:39;;;;;;;3.72;1.00;;;;;;;-0.23;68.75;98985.41;10142588;29;20101;-65
2021/01/13 23:30:40;;;;;;;9.48;1.20;;;;;;;-0.25;68.28;98985.41;10139637;29;20426;-65
2021/01/13 23:35:43;;;;;;;3.78;1.42;;;;;;;-0.39;70.46;98990.66;10140973;29;20044;-66
2021/01/13 23:40:45;;;;;;;3.92;1.13;;;;;;;-0.24;69.30;98994.88;10143534;29;20048;-65
2021/01/13 23:45:47;;;;;;;6.63;1.45;;;;;;;-0.32;69.72;99005.25;10141037;29;20045;-65
2021/01/13 23:50:48;;;;;;;9.90;1.35;;;;;;;-0.32;68.33;99017.28;10140213;29;20498;-63
2021/01/13 23:55:49;;;;;;;2.05;0.85;;;;;;;-0.51;67.01;99016.50;10140837;29;20048;-64
